Time;durP1;ratioP1;P1;durP2;ratioP2;P2;SDS_P1;SDS_P2;PMS_P1;PMS_P2;Temp;Humidity;BMP_temperature;BMP_pressure;BME280_temperature;BME280_humidity;BME280_pressure;Samples;Min_cycle;Max_cycle;Signal;HPM_P1;HPM_P2
2022/01/03 00:00:52;;;;;;;1.73;0.60;;;12.50;99.90;;;;;;4841364;29;20442;-90
2022/01/03 00:03:23;;;;;;;2.45;0.50;;;12.50;99.90;;;;;;4858904;29;20051;-91
2022/01/03 00:05:52;;;;;;;2.47;0.40;;;12.50;99.90;;;;;;4854533;29;20053;-90
2022/01/03 00:08:22;;;;;;;3.90;0.57;;;12.50;99.90;;;;;;4842922;29;20060;-90
2022/01/03 00:10:51;;;;;;;2.80;0.68;;;12.50;99.90;;;;;;4840206;29;20068;-91
2022/01/03 00:13:21;;;;;;;2.25;0.60;;;12.60;99.90;;;;;;4857637;29;20069;-90
2022/01/03 00:15:52;;;;;;;2.38;0.57;;;12.50;99.90;;;;;;4844004;29;20050;-91
2022/01/03 00:18:24;;;;;;;2.80;0.70;;;12.60;99.90;;;;;;4840183;29;20053;-91
2022/01/03 00:20:58;;;;;;;2.53;0.60;;;12.70;99.90;;;;;;4838100;29;20050;-90
2022/01/03 00:23:29;;;;;;;2.90;0.40;;;12.70;99.90;;;;;;4874199;29;20054;-89
2022/01/03 00:26:00;;;;;;;4.38;0.60;;;12.70;99.90;;;;;;4867919;29;20053;-90
2022/01/03 00:28:37;;;;;;;2.97;0.88;;;12.70;99.90;;;;;;4853601;29;20053;-90
2022/01/03 00:31:13;;;;;;;2.30;0.80;;;12.80;99.90;;;;;;4856408;29;20088;-89
2022/01/03 00:33:48;;;;;;;3.97;1.03;;;12.80;99.90;;;;;;4871994;29;20069;-89
2022/01/03 00:36:20;;;;;;;2.53;0.90;;;12.70;99.90;;;;;;4850583;29;20057;-90
2022/01/03 00:38:49;;;;;;;4.45;1.10;;;12.70;99.90;;;;;;4858746;29;20081;-90
2022/01/03 00:41:18;;;;;;;4.63;1.10;;;12.60;99.90;;;;;;4855683;29;20042;-89
2022/01/03 00:44:11;;;;;;;4.63;1.00;;;12.50;99.90;;;;;;4839051;29;20140;-89
2022/01/03 00:46:41;;;;;;;3.33;1.10;;;12.50;99.90;;;;;;4842630;29;20053;-89
2022/01/03 00:49:11;;;;;;;3.42;1.02;;;12.40;99.90;;;;;;4861453;29;20062;-89
2022/01/03 00:51:41;;;;;;;4.07;0.93;;;12.40;99.90;;;;;;4861770;29;20101;-90
2022/01/03 00:54:10;;;;;;;2.47;0.80;;;12.40;99.90;;;;;;4874983;29;20053;-90
2022/01/03 00:56:43;;;;;;;4.10;1.10;;;12.40;99.90;;;;;;4864349;29;20056;-90
2022/01/03 00:59:15;;;;;;;3.77;0.90;;;12.40;99.90;;;;;;4842495;29;20076;-89
2022/01/03 01:01:47;;;;;;;3.05;1.27;;;12.20;99.90;;;;;;4866148;29;20045;-90
2022/01/03 01:04:20;;;;;;;3.38;0.80;;;12.20;99.90;;;;;;4881064;29;20213;-89
2022/01/03 01:07:19;;;;;;;2.90;0.85;;;12.10;99.90;;;;;;4859453;29;20053;-89
2022/01/03 01:09:52;;;;;;;3.78;0.57;;;12.10;99.90;;;;;;4866189;29;20059;-91
2022/01/03 01:12:22;;;;;;;5.40;1.00;;;12.20;99.90;;;;;;4873847;29;20057;-90
2022/01/03 01:14:52;;;;;;;3.65;1.10;;;12.20;99.90;;;;;;4884990;29;20044;-90
2022/01/03 01:17:26;;;;;;;3.10;0.80;;;12.20;99.90;;;;;;4871099;29;20170;-89
2022/01/03 01:19:58;;;;;;;3.47;1.10;;;12.20;99.90;;;;;;4866362;29;20057;-89
2022/01/03 01:22:28;;;;;;;3.55;0.70;;;12.30;99.90;;;;;;4872066;29;20057;-89
2022/01/03 01:25:22;;;;;;;3.17;0.67;;;12.30;99.90;;;;;;4866306;29;20560;-89
2022/01/03 01:27:53;;;;;;;2.72;0.70;;;12.20;99.90;;;;;;4874251;29;20048;-90
2022/01/03 01:30:27;;;;;;;1.50;0.50;;;12.30;99.90;;;;;;4861915;29;20193;-89
2022/01/03 01:33:02;;;;;;;1.65;0.40;;;12.20;99.90;;;;;;4890010;29;20484;-90
2022/01/03 01:35:41;;;;;;;1.92;0.30;;;12.10;99.90;;;;;;4848626;29;20079;-90
2022/01/03 01:38:15;;;;;;;4.27;0.30;;;12.20;99.90;;;;;;4866354;29;20060;-88
2022/01/03 01:40:46;;;;;;;1.92;0.20;;;12.10;99.90;;;;;;4869392;29;20045;-90
2022/01/03 01:43:20;;;;;;;1.60;0.30;;;12.20;99.90;;;;;;4867127;29;20045;-91
2022/01/03 01:45:53;;;;;;;2.42;0.30;;;12.20;99.90;;;;;;4860213;29;20059;-90
2022/01/03 01:48:28;;;;;;;2.65;0.45;;;12.30;99.90;;;;;;4850147;29;20508;-90
2022/01/03 01:51:01;;;;;;;3.47;0.87;;;12.30;99.90;;;;;;4856874;29;20084;-90
2022/01/03 01:53:31;;;;;;;1.33;0.22;;;12.40;99.90;;;;;;4848783;29;20123;-90
2022/01/03 01:56:00;;;;;;;3.10;0.55;;;12.40;99.90;;;;;;4850584;29;21094;-90
2022/01/03 01:58:35;;;;;;;4.28;0.45;;;12.40;99.90;;;;;;4863415;29;20056;-90
2022/01/03 02:01:08;;;;;;;3.58;0.40;;;12.40;99.90;;;;;;4860200;29;20068;-90
2022/01/03 02:03:58;;;;;;;1.60;0.33;;;12.40;99.90;;;;;;4864172;29;20052;-90
2022/01/03 02:06:41;;;;;;;1.15;0.30;;;12.50;99.90;;;;;;4833959;29;20050;-91
2022/01/03 02:09:18;;;;;;;2.75;0.55;;;12.50;99.90;;;;;;4844093;29;20168;-90
2022/01/03 02:11:52;;;;;;;2.15;0.40;;;12.50;99.90;;;;;;4842426;29;20054;-91
2022/01/03 02:14:35;;;;;;;4.47;0.57;;;12.50;99.90;;;;;;4842570;29;20129;-90
2022/01/03 02:17:08;;;;;;;0.90;0.23;;;12.50;99.90;;;;;;4821458;29;20042;-89
2022/01/03 02:19:40;;;;;;;1.73;0.28;;;12.40;99.90;;;;;;4827823;29;20106;-91
2022/01/03 02:22:11;;;;;;;1.35;0.30;;;12.10;99.90;;;;;;4822018;29;20069;-89
2022/01/03 02:24:53;;;;;;;1.35;0.20;;;11.10;99.90;;;;;;4826701;29;20102;-91
2022/01/03 02:27:22;;;;;;;0.60;0.20;;;10.40;99.90;;;;;;4834099;29;20058;-88
2022/01/03 02:29:52;;;;;;;0.57;0.17;;;10.10;99.90;;;;;;4837714;29;20137;-91
2022/01/03 02:32:23;;;;;;;0.75;0.30;;;9.70;99.90;;;;;;4828806;29;20058;-89
2022/01/03 02:34:54;;;;;;;1.45;0.30;;;9.50;99.90;;;;;;4841837;29;20045;-88
2022/01/03 02:37:29;;;;;;;0.52;0.13;;;9.30;99.90;;;;;;4839223;29;20058;-91
2022/01/03 02:39:59;;;;;;;1.75;0.10;;;9.10;99.90;;;;;;4825288;29;20046;-91
2022/01/03 02:42:32;;;;;;;0.90;0.20;;;9.10;99.90;;;;;;4830509;29;20544;-92
2022/01/03 02:45:03;;;;;;;0.60;0.15;;;9.10;99.90;;;;;;4826577;29;20401;-91
2022/01/03 02:47:36;;;;;;;1.95;0.20;;;9.00;99.90;;;;;;4836251;29;20120;-90
2022/01/03 02:50:11;;;;;;;0.52;0.10;;;9.00;99.90;;;;;;4838313;29;20516;-89
2022/01/03 02:52:41;;;;;;;3.70;0.32;;;8.90;99.90;;;;;;4823250;29;20058;-89
2022/01/03 02:55:10;;;;;;;2.30;0.20;;;8.90;99.90;;;;;;4839197;29;20501;-89
2022/01/03 02:57:40;;;;;;;0.50;0.10;;;8.90;99.90;;;;;;4829148;29;20144;-88
2022/01/03 03:00:13;;;;;;;1.02;0.30;;;8.90;99.90;;;;;;4821055;29;20505;-88
2022/01/03 03:02:42;;;;;;;0.82;0.28;;;8.90;99.90;;;;;;4826273;29;20061;-88
2022/01/03 03:05:14;;;;;;;0.60;0.10;;;9.00;99.90;;;;;;4860433;29;20140;-89
2022/01/03 03:07:45;;;;;;;0.70;0.20;;;9.00;99.90;;;;;;4869314;29;20146;-88
2022/01/03 03:10:17;;;;;;;1.65;0.13;;;9.00;99.90;;;;;;4836609;29;20048;-88
2022/01/03 03:12:47;;;;;;;2.67;0.30;;;9.00;99.90;;;;;;4839143;29;20053;-89
2022/01/03 03:15:17;;;;;;;0.60;0.13;;;9.10;99.90;;;;;;4864151;29;20052;-89
2022/01/03 03:17:47;;;;;;;0.80;0.10;;;9.00;99.90;;;;;;4842576;29;21323;-90
2022/01/03 03:20:44;;;;;;;2.10;0.30;;;9.10;99.90;;;;;;4855266;29;20057;-89
2022/01/03 03:23:14;;;;;;;1.50;0.30;;;9.20;99.90;;;;;;4844635;29;20080;-89
2022/01/03 03:26:16;;;;;;;1.60;0.30;;;9.20;99.90;;;;;;4869062;29;20406;-90
2022/01/03 03:28:47;;;;;;;0.70;0.20;;;9.20;99.90;;;;;;4855815;29;20091;-88
2022/01/03 03:31:16;;;;;;;1.30;0.30;;;9.20;99.90;;;;;;4856334;29;20053;-90
2022/01/03 03:33:45;;;;;;;0.60;0.20;;;9.10;99.90;;;;;;4856890;29;20141;-89
2022/01/03 03:36:16;;;;;;;1.90;0.30;;;9.10;99.90;;;;;;4852027;29;20060;-90
2022/01/03 03:38:46;;;;;;;0.60;0.10;;;9.10;99.90;;;;;;4857543;29;20140;-89
2022/01/03 03:41:18;;;;;;;0.90;0.20;;;9.20;99.90;;;;;;4842181;29;20049;-89
2022/01/03 03:44:12;;;;;;;0.85;0.15;;;9.20;99.90;;;;;;4859924;29;20118;-89
2022/01/03 03:46:42;;;;;;;2.23;0.67;;;9.30;99.90;;;;;;4856763;29;20057;-90
2022/01/03 03:49:11;;;;;;;0.90;0.30;;;9.30;99.90;;;;;;4842143;29;20056;-90
2022/01/03 03:51:42;;;;;;;2.25;0.20;;;9.50;99.90;;;;;;4838902;29;20049;-90
2022/01/03 03:54:11;;;;;;;0.65;0.20;;;9.50;99.90;;;;;;4858389;29;20081;-89
2022/01/03 03:57:08;;;;;;;1.10;0.30;;;9.50;99.90;;;;;;4851221;29;20137;-90
2022/01/03 03:59:37;;;;;;;1.10;0.30;;;9.40;99.90;;;;;;4875753;29;20088;-89
2022/01/03 04:02:07;;;;;;;1.30;0.30;;;9.40;99.90;;;;;;4868243;29;20110;-89
2022/01/03 04:04:38;;;;;;;5.88;0.50;;;9.40;99.90;;;;;;4844253;29;20081;-89
2022/01/03 04:07:12;;;;;;;0.65;0.17;;;9.40;99.90;;;;;;4869934;29;20077;-89
2022/01/03 04:10:07;;;;;;;0.70;0.30;;;9.20;99.90;;;;;;4857459;29;20053;-90
2022/01/03 04:12:39;;;;;;;1.20;0.57;;;9.20;99.90;;;;;;4836940;29;20045;-89
2022/01/03 04:15:10;;;;;;;1.15;0.32;;;9.10;99.90;;;;;;4845494;29;20062;-90
2022/01/03 04:17:39;;;;;;;2.25;0.30;;;9.20;99.90;;;;;;4841063;29;20100;-89
2022/01/03 04:20:09;;;;;;;0.80;0.30;;;9.30;99.90;;;;;;4844277;29;20053;-89
2022/01/03 04:22:41;;;;;;;1.98;0.30;;;9.20;99.90;;;;;;4832875;29;20493;-90
2022/01/03 04:25:11;;;;;;;1.43;0.33;;;9.20;99.90;;;;;;4855996;29;20052;-90
2022/01/03 04:27:40;;;;;;;1.20;0.20;;;9.20;99.90;;;;;;4835380;29;20058;-89
2022/01/03 04:30:10;;;;;;;3.42;0.32;;;9.30;99.90;;;;;;4857461;29;20057;-88
2022/01/03 04:32:41;;;;;;;3.03;0.32;;;9.30;99.90;;;;;;4835006;29;20062;-89
2022/01/03 04:35:10;;;;;;;0.82;0.20;;;9.40;99.90;;;;;;4852598;29;20061;-89
2022/01/03 04:37:40;;;;;;;1.43;0.13;;;9.40;99.90;;;;;;4852031;29;20112;-91
2022/01/03 04:40:10;;;;;;;1.33;0.32;;;9.30;99.90;;;;;;4845313;29;20421;-91
2022/01/03 04:42:39;;;;;;;0.90;0.20;;;9.40;99.90;;;;;;4857205;29;20057;-90
2022/01/03 04:45:09;;;;;;;4.03;0.52;;;9.30;99.90;;;;;;4859351;29;20074;-91
2022/01/03 04:47:38;;;;;;;6.15;0.40;;;9.40;99.90;;;;;;4858184;29;20057;-90
2022/01/03 04:50:07;;;;;;;3.13;0.40;;;9.40;99.90;;;;;;4844803;29;20105;-90
2022/01/03 04:52:36;;;;;;;0.70;0.30;;;9.40;99.90;;;;;;4859019;29;20065;-90
2022/01/03 04:55:07;;;;;;;2.55;0.20;;;9.40;99.90;;;;;;4843234;29;20050;-91
2022/01/03 04:57:36;;;;;;;0.70;0.10;;;9.40;99.90;;;;;;4854849;29;20053;-90
2022/01/03 05:00:06;;;;;;;2.00;0.30;;;9.40;99.90;;;;;;4848315;29;20110;-90
2022/01/03 05:02:36;;;;;;;2.00;0.53;;;9.40;99.90;;;;;;4847252;29;20130;-90
2022/01/03 05:05:07;;;;;;;2.03;0.50;;;9.40;99.90;;;;;;4856101;29;20101;-89
2022/01/03 05:07:37;;;;;;;1.38;0.20;;;9.40;99.90;;;;;;4849078;29;20241;-89
2022/01/03 05:10:09;;;;;;;0.95;0.25;;;9.40;99.90;;;;;;4846191;29;20049;-89
2022/01/03 05:13:04;;;;;;;1.77;0.20;;;9.30;99.90;;;;;;4864399;29;20132;-89
2022/01/03 05:15:33;;;;;;;2.10;0.20;;;9.30;99.90;;;;;;4858814;29;20056;-90
2022/01/03 05:18:02;;;;;;;3.17;0.45;;;9.30;99.90;;;;;;4878075;29;20468;-90
2022/01/03 05:20:31;;;;;;;2.70;0.30;;;9.30;99.90;;;;;;4848540;29;20056;-90
2022/01/03 05:23:01;;;;;;;3.03;0.30;;;9.30;99.90;;;;;;4846929;29;20049;-90
2022/01/03 05:25:32;;;;;;;2.75;0.20;;;9.40;99.90;;;;;;4847210;29;20146;-90
2022/01/03 05:28:00;;;;;;;2.90;0.40;;;9.30;99.90;;;;;;4849400;29;20050;-90
2022/01/03 05:30:30;;;;;;;4.03;0.40;;;9.30;99.90;;;;;;4867408;29;20053;-89
2022/01/03 05:33:00;;;;;;;5.78;0.43;;;9.40;99.90;;;;;;4878979;29;20584;-89
2022/01/03 05:35:31;;;;;;;1.73;0.20;;;9.40;99.90;;;;;;4864894;29;20168;-88
2022/01/03 05:38:00;;;;;;;1.27;0.20;;;9.40;99.90;;;;;;4852727;29;20053;-88
2022/01/03 05:40:33;;;;;;;0.63;0.20;;;9.40;99.90;;;;;;4865605;29;20088;-89
2022/01/03 05:43:02;;;;;;;1.77;0.30;;;9.40;99.90;;;;;;4848821;29;20053;-90
2022/01/03 05:45:33;;;;;;;1.35;0.20;;;9.40;99.90;;;;;;4860859;29;20133;-90
2022/01/03 05:48:02;;;;;;;1.65;0.35;;;9.50;99.90;;;;;;4852692;29;20053;-88
2022/01/03 05:50:32;;;;;;;1.15;0.20;;;9.50;99.90;;;;;;4849429;29;20059;-89
2022/01/03 05:53:00;;;;;;;0.90;0.20;;;9.50;99.90;;;;;;4848707;29;20053;-89
2022/01/03 05:55:30;;;;;;;2.47;0.20;;;9.50;99.90;;;;;;4867653;29;20061;-89
2022/01/03 05:58:25;;;;;;;2.33;0.43;;;9.60;99.90;;;;;;4865025;29;20133;-90
2022/01/03 06:00:55;;;;;;;1.20;0.25;;;9.60;99.90;;;;;;4865044;29;20050;-90
2022/01/03 06:03:24;;;;;;;2.38;0.40;;;9.60;99.90;;;;;;4842867;29;20132;-90
2022/01/03 06:06:17;;;;;;;1.73;0.47;;;9.70;99.90;;;;;;4858462;29;20523;-90
2022/01/03 06:08:53;;;;;;;3.38;0.38;;;9.80;99.90;;;;;;4844055;29;20101;-90
2022/01/03 06:11:23;;;;;;;1.27;0.30;;;9.90;99.90;;;;;;4846022;29;20058;-89
2022/01/03 06:14:19;;;;;;;0.90;0.30;;;10.00;99.90;;;;;;4842167;29;20050;-90
2022/01/03 06:16:50;;;;;;;1.42;0.40;;;10.00;99.90;;;;;;4876647;29;20102;-90
2022/01/03 06:19:20;;;;;;;2.43;0.30;;;10.10;99.90;;;;;;4839578;29;20058;-90
2022/01/03 06:21:50;;;;;;;4.13;0.45;;;10.00;99.90;;;;;;4853882;29;20042;-89
2022/01/03 06:24:21;;;;;;;1.63;0.30;;;10.00;99.90;;;;;;4842312;29;20061;-89
2022/01/03 06:26:53;;;;;;;1.92;0.35;;;10.00;99.90;;;;;;4860966;29;20046;-90
2022/01/03 06:29:23;;;;;;;1.58;0.30;;;10.00;99.90;;;;;;4859044;29;20080;-90
2022/01/03 06:34:45;;;;;;;1.65;0.28;;;10.10;99.90;;;;;;4855232;29;20081;-89
2022/01/03 06:37:15;;;;;;;1.20;0.20;;;10.00;99.90;;;;;;4857244;29;20049;-90
2022/01/03 06:40:00;;;;;;;4.10;0.70;;;10.00;99.90;;;;;;4843242;29;20049;-90
2022/01/03 06:42:30;;;;;;;4.97;0.50;;;10.00;99.90;;;;;;4854959;29;20050;-91
2022/01/03 06:45:01;;;;;;;2.37;0.40;;;10.10;99.90;;;;;;4866432;29;20110;-90
2022/01/03 06:47:31;;;;;;;3.33;0.43;;;10.00;99.90;;;;;;4880826;29;20099;-92
2022/01/03 06:50:02;;;;;;;2.10;0.30;;;10.00;99.90;;;;;;4852808;29;20128;-92
2022/01/03 06:52:31;;;;;;;2.22;0.45;;;10.00;99.90;;;;;;4866198;29;20046;-91
2022/01/03 06:55:00;;;;;;;2.35;0.38;;;9.90;99.90;;;;;;4867684;29;20781;-90
2022/01/03 06:57:29;;;;;;;1.50;0.40;;;9.90;99.90;;;;;;4868104;29;20069;-90
2022/01/03 06:59:58;;;;;;;5.90;0.40;;;10.00;99.90;;;;;;4853459;29;20493;-88
2022/01/03 07:02:29;;;;;;;3.75;0.30;;;9.90;99.90;;;;;;4844068;29;20061;-90
2022/01/03 07:04:57;;;;;;;1.02;0.20;;;10.00;99.90;;;;;;4839135;29;20450;-90
2022/01/03 07:07:26;;;;;;;4.53;0.68;;;10.00;99.90;;;;;;4856244;29;20494;-91
2022/01/03 07:09:55;;;;;;;1.43;0.37;;;10.00;99.90;;;;;;4843009;29;20061;-91
2022/01/03 07:12:24;;;;;;;2.78;0.40;;;9.90;99.90;;;;;;4844256;29;20052;-90
2022/01/03 07:20:24;;;;;;;2.13;0.30;;;9.90;99.90;;;;;;4851800;29;20156;-91
2022/01/03 07:22:53;;;;;;;1.70;0.50;;;9.80;99.90;;;;;;4873065;29;20486;-90
2022/01/03 07:25:23;;;;;;;1.20;0.20;;;9.90;99.90;;;;;;4869821;29;20140;-90
2022/01/03 07:27:51;;;;;;;3.90;0.22;;;9.80;99.90;;;;;;4859179;29;20052;-91
2022/01/03 07:30:19;;;;;;;0.60;0.10;;;9.70;99.90;;;;;;4853906;29;20132;-90
2022/01/03 07:32:55;;;;;;;3.22;0.55;;;9.60;99.90;;;;;;4842058;29;20042;-90
2022/01/03 07:35:24;;;;;;;1.03;0.20;;;9.60;99.90;;;;;;4841520;29;20132;-90
2022/01/03 07:37:53;;;;;;;1.10;0.30;;;9.60;99.90;;;;;;4841086;29;20105;-90
2022/01/03 07:40:22;;;;;;;1.10;0.40;;;9.60;99.90;;;;;;4858164;29;20501;-90
2022/01/03 07:42:51;;;;;;;1.35;0.30;;;9.60;99.90;;;;;;4843274;29;20053;-90
2022/01/03 07:45:21;;;;;;;1.52;0.40;;;9.60;99.90;;;;;;4844584;29;20113;-89
2022/01/03 07:47:49;;;;;;;1.13;0.20;;;9.60;99.90;;;;;;4841752;29;20084;-90
2022/01/03 07:50:20;;;;;;;1.38;0.35;;;9.70;99.90;;;;;;4843056;29;20089;-90
2022/01/03 07:52:49;;;;;;;1.17;0.20;;;9.70;99.90;;;;;;4856130;29;20137;-93
2022/01/03 07:55:43;;;;;;;3.80;0.40;;;9.60;99.90;;;;;;4861360;29;20049;-92
2022/01/03 07:58:15;;;;;;;1.38;0.20;;;9.50;99.90;;;;;;4842201;29;20050;-91
2022/01/03 08:00:45;;;;;;;1.50;0.70;;;9.40;99.90;;;;;;4860321;29;20053;-89
2022/01/03 08:03:13;;;;;;;0.98;0.20;;;9.40;99.90;;;;;;4844654;29;20053;-89
2022/01/03 08:05:43;;;;;;;1.42;0.20;;;9.40;99.90;;;;;;4841789;29;20065;-88
2022/01/03 08:08:16;;;;;;;3.40;0.32;;;9.40;99.90;;;;;;4833427;29;20053;-89
2022/01/03 08:10:46;;;;;;;1.63;0.43;;;9.50;99.90;;;;;;4845655;29;20136;-89
2022/01/03 08:13:16;;;;;;;1.03;0.20;;;9.50;99.90;;;;;;4859451;29;20053;-89
2022/01/03 08:15:47;;;;;;;1.02;0.20;;;9.60;99.90;;;;;;4862869;29;20060;-89
2022/01/03 08:21:10;;;;;;;1.02;0.20;;;9.80;99.90;;;;;;4878837;29;20053;-88
2022/01/03 08:23:58;;;;;;;1.08;0.10;;;9.90;99.90;;;;;;4870950;29;20050;-87
2022/01/03 08:26:27;;;;;;;1.23;0.40;;;9.90;99.90;;;;;;4844559;29;20049;-87
2022/01/03 08:28:57;;;;;;;2.20;0.40;;;9.90;99.90;;;;;;4856429;29;20053;-90
2022/01/03 08:31:51;;;;;;;2.67;0.30;;;9.90;99.90;;;;;;4844101;29;20057;-89
2022/01/03 08:34:20;;;;;;;2.33;0.20;;;10.00;99.90;;;;;;4866861;29;20061;-86
2022/01/03 08:36:50;;;;;;;1.58;0.20;;;10.10;99.90;;;;;;4861638;29;20486;-90
2022/01/03 08:39:19;;;;;;;1.63;0.33;;;10.00;99.90;;;;;;4860143;29;20053;-90
2022/01/03 08:41:48;;;;;;;1.88;0.40;;;10.00;99.90;;;;;;4846900;29;20049;-95
2022/01/03 08:44:18;;;;;;;2.88;0.32;;;10.10;99.90;;;;;;4852460;29;20519;-94
2022/01/03 08:46:49;;;;;;;3.20;0.30;;;10.00;99.90;;;;;;4861602;29;20057;-90
2022/01/03 08:49:19;;;;;;;3.17;0.28;;;10.10;99.90;;;;;;4869275;29;20165;-89
2022/01/03 08:51:48;;;;;;;1.20;0.33;;;10.20;99.90;;;;;;4858301;29;20128;-89
2022/01/03 08:54:18;;;;;;;1.67;0.35;;;10.30;99.90;;;;;;4845192;29;20493;-90
2022/01/03 08:56:49;;;;;;;3.47;0.82;;;10.30;99.90;;;;;;4843635;29;20053;-95
2022/01/03 08:59:19;;;;;;;2.13;0.50;;;10.30;99.90;;;;;;4847337;29;20057;-93
2022/01/03 09:01:48;;;;;;;2.80;0.43;;;10.30;99.90;;;;;;4844623;29;20109;-92
2022/01/03 09:07:44;;;;;;;1.42;0.25;;;10.30;99.90;;;;;;4870992;29;20114;-96
2022/01/03 09:10:15;;;;;;;3.58;0.50;;;10.40;99.90;;;;;;4878154;24;20084;-70
2022/01/03 09:12:45;;;;;;;5.00;0.55;;;10.30;99.90;;;;;;4838390;29;20049;-70
2022/01/03 09:15:14;;;;;;;2.42;0.50;;;10.40;99.90;;;;;;4839580;29;20065;-73
2022/01/03 09:17:43;;;;;;;4.60;0.50;;;10.50;99.90;;;;;;4823703;29;20082;-74
2022/01/03 09:20:13;;;;;;;3.33;0.30;;;10.50;99.90;;;;;;4838077;29;20049;-73
2022/01/03 09:22:45;;;;;;;4.57;0.43;;;10.60;99.90;;;;;;4837904;29;20061;-69
2022/01/03 09:30:51;;;;;;;1.70;0.60;;;10.70;99.90;;;;;;4859018;29;20049;-69
2022/01/03 09:33:20;;;;;;;2.20;0.63;;;10.70;99.90;;;;;;4838975;29;20081;-69
2022/01/03 09:35:52;;;;;;;4.88;0.73;;;10.80;99.90;;;;;;4845746;29;20049;-71
2022/01/03 09:38:21;;;;;;;3.30;0.80;;;10.80;99.90;;;;;;4857311;29;20177;-69
2022/01/03 09:40:56;;;;;;;2.70;0.70;;;11.00;99.90;;;;;;4840231;29;20053;-70
2022/01/03 09:43:26;;;;;;;5.10;0.80;;;11.10;99.90;;;;;;4841212;29;20060;-68
2022/01/03 09:45:56;;;;;;;4.97;0.77;;;11.20;99.90;;;;;;4841004;29;20106;-72
2022/01/03 09:49:11;;;;;;;1.92;0.63;;;11.30;99.90;;;;;;4859603;29;20066;-83
2022/01/03 09:51:44;;;;;;;4.07;0.70;;;11.40;99.90;;;;;;4829059;29;20450;-96
2022/01/03 09:54:15;;;;;;;3.17;0.60;;;11.30;99.90;;;;;;4831399;29;20469;-96
2022/01/03 09:56:47;;;;;;;4.13;0.60;;;11.30;99.90;;;;;;4817643;29;20501;-96
2022/01/03 09:59:17;;;;;;;4.60;0.63;;;11.40;99.90;;;;;;4828614;29;20065;-96
2022/01/03 10:01:47;;;;;;;3.78;0.80;;;11.50;99.90;;;;;;4815243;29;20136;-96
2022/01/03 10:04:19;;;;;;;3.20;0.60;;;11.50;99.90;;;;;;4825961;29;20113;-91
2022/01/03 10:06:50;;;;;;;3.63;0.80;;;11.60;99.90;;;;;;4815916;29;20050;-86
2022/01/03 10:09:20;;;;;;;3.67;1.10;;;11.70;99.90;;;;;;4821099;29;20060;-87
2022/01/03 10:11:51;;;;;;;2.65;0.85;;;11.60;99.90;;;;;;4809775;29;20486;-96
2022/01/03 10:14:21;;;;;;;2.50;0.75;;;11.60;99.90;;;;;;4814399;29;20052;-93
2022/01/03 10:16:50;;;;;;;4.18;0.80;;;11.60;99.90;;;;;;4826425;29;20118;-94
2022/01/03 10:19:25;;;;;;;3.92;0.90;;;11.60;99.90;;;;;;4809973;29;20450;-93
2022/01/03 10:21:54;;;;;;;4.33;0.53;;;11.60;99.90;;;;;;4811437;29;20050;-93
2022/01/03 10:24:32;;;;;;;3.03;0.80;;;11.60;99.90;;;;;;4810288;29;20087;-93
2022/01/03 10:27:04;;;;;;;3.85;0.80;;;11.70;99.90;;;;;;4813026;29;20122;-92
2022/01/03 10:29:33;;;;;;;4.03;0.82;;;11.70;99.90;;;;;;4829719;29;20054;-93
2022/01/03 10:32:29;;;;;;;3.42;0.65;;;11.70;99.90;;;;;;4824647;29;20110;-95
2022/01/03 10:38:13;;;;;;;5.43;0.50;;;11.70;99.90;;;;;;4829136;29;20053;-96
2022/01/03 10:40:42;;;;;;;4.03;0.73;;;11.70;99.90;;;;;;4815604;29;20098;-95
2022/01/03 10:43:19;;;;;;;5.97;0.80;;;11.70;99.90;;;;;;4832325;29;20514;-93
2022/01/03 10:45:50;;;;;;;6.00;0.50;;;11.80;99.90;;;;;;4843574;29;20045;-95
2022/01/03 10:48:30;;;;;;;4.00;0.70;;;11.90;99.90;;;;;;4825151;29;20069;-95
2022/01/03 10:51:03;;;;;;;2.70;0.60;;;11.90;99.90;;;;;;4826068;29;20057;-93
2022/01/03 10:57:48;;;;;;;5.88;0.90;;;11.90;99.90;;;;;;4840290;29;20069;-90
2022/01/03 11:00:20;;;;;;;8.32;1.00;;;11.80;99.90;;;;;;4841629;29;20077;-96
2022/01/03 11:03:18;;;;;;;2.90;0.50;;;11.60;99.90;;;;;;4828870;29;20060;-93
2022/01/03 11:05:51;;;;;;;3.35;0.57;;;11.40;99.90;;;;;;4832196;29;20648;-92
2022/01/03 11:11:18;;;;;;;2.30;0.20;;;11.10;99.90;;;;;;4833687;29;20068;-93
2022/01/03 11:13:48;;;;;;;2.22;0.40;;;10.90;99.90;;;;;;4827642;29;20126;-92
2022/01/03 11:16:19;;;;;;;1.33;0.30;;;10.80;99.90;;;;;;4828460;29;20145;-89
2022/01/03 11:18:49;;;;;;;4.93;0.60;;;10.90;99.90;;;;;;4826832;29;20057;-89
2022/01/03 11:21:23;;;;;;;4.75;0.70;;;10.90;99.90;;;;;;4818806;29;20046;-89
2022/01/03 11:24:06;;;;;;;2.38;0.70;;;10.90;99.90;;;;;;4836797;29;20050;-90
2022/01/03 11:26:46;;;;;;;5.75;0.70;;;10.90;99.90;;;;;;4839799;29;20062;-88
2022/01/03 11:29:16;;;;;;;2.77;0.90;;;11.00;99.90;;;;;;4830259;29;20058;-90
2022/01/03 11:31:52;;;;;;;4.32;0.95;;;11.10;99.90;;;;;;4829445;29;20058;-94
2022/01/03 11:34:25;;;;;;;2.45;0.55;;;11.20;99.90;;;;;;4830026;29;20042;-93
2022/01/03 11:40:17;;;;;;;2.90;0.43;;;11.30;99.90;;;;;;4835484;29;20037;-92
2022/01/03 11:42:48;;;;;;;2.43;0.40;;;11.30;99.90;;;;;;4815288;29;20054;-88
2022/01/03 11:45:18;;;;;;;2.33;0.52;;;11.30;99.90;;;;;;4812264;29;20056;-92
2022/01/03 11:47:50;;;;;;;2.30;0.68;;;11.30;99.90;;;;;;4829058;29;20045;-92
2022/01/03 11:50:44;;;;;;;4.22;0.68;;;11.20;99.90;;;;;;4817531;29;20065;-91
2022/01/03 11:53:24;;;;;;;3.85;0.98;;;11.20;99.90;;;;;;4806703;29;20102;-92
2022/01/03 11:55:54;;;;;;;2.23;0.40;;;11.10;99.90;;;;;;4817820;29;20099;-91
2022/01/03 11:58:44;;;;;;;3.45;0.70;;;11.20;99.90;;;;;;4831112;29;20035;-92
2022/01/03 12:04:10;;;;;;;3.95;0.70;;;11.20;99.90;;;;;;4821264;24;20042;-67
2022/01/03 12:06:39;;;;;;;5.43;0.60;;;11.30;99.90;;;;;;4833626;29;20058;-67
2022/01/03 12:09:10;;;;;;;6.90;0.70;;;11.30;99.90;;;;;;4831233;29;20052;-67
2022/01/03 12:11:46;;;;;;;2.45;0.70;;;11.30;99.90;;;;;;4835843;29;20057;-67
2022/01/03 12:14:16;;;;;;;8.85;0.90;;;11.40;99.90;;;;;;4818266;29;20061;-67
2022/01/03 12:16:48;;;;;;;3.72;0.85;;;11.50;99.90;;;;;;4835752;29;20061;-68
2022/01/03 12:19:31;;;;;;;2.78;0.57;;;11.50;99.90;;;;;;4836085;29;20061;-67
2022/01/03 12:22:15;;;;;;;3.90;0.70;;;11.50;99.90;;;;;;4834153;29;20520;-72
2022/01/03 12:24:53;;;;;;;5.10;0.80;;;11.50;99.90;;;;;;4837841;29;20053;-71
2022/01/03 12:27:40;;;;;;;4.55;0.70;;;11.40;99.90;;;;;;4833215;29;20050;-70
2022/01/03 12:30:23;;;;;;;1.75;0.50;;;11.40;99.90;;;;;;4849287;29;20076;-69
2022/01/03 12:33:24;;;;;;;2.60;0.63;;;11.50;99.90;;;;;;4834191;29;20049;-69
2022/01/03 12:36:18;;;;;;;2.80;0.60;;;11.40;99.90;;;;;;4835150;29;20118;-69
2022/01/03 12:39:08;;;;;;;5.53;0.88;;;11.30;99.90;;;;;;4835009;29;20621;-69
2022/01/03 12:41:43;;;;;;;3.20;0.52;;;11.30;99.90;;;;;;4832787;29;20053;-68
2022/01/03 12:47:18;;;;;;;3.50;0.50;;;11.50;99.90;;;;;;4834187;29;20065;-68
2022/01/03 12:49:47;;;;;;;1.70;0.50;;;11.50;99.90;;;;;;4837064;29;20268;-70
2022/01/03 12:52:19;;;;;;;4.43;0.70;;;11.60;99.90;;;;;;4834294;29;20060;-70
2022/01/03 12:54:53;;;;;;;1.90;0.60;;;11.60;99.90;;;;;;4822919;29;20061;-69
2022/01/03 12:57:31;;;;;;;3.72;0.43;;;11.60;99.90;;;;;;4816565;29;20148;-69
2022/01/03 13:00:00;;;;;;;4.75;0.45;;;11.50;99.90;;;;;;4838439;29;20045;-69
2022/01/03 13:02:32;;;;;;;6.63;0.70;;;11.50;99.90;;;;;;4841731;29;20553;-69
2022/01/03 13:05:03;;;;;;;7.18;1.15;;;11.50;99.90;;;;;;4857781;29;20053;-69
2022/01/03 13:07:33;;;;;;;3.67;1.05;;;11.50;99.90;;;;;;4840629;29;20052;-70
2022/01/03 13:10:02;;;;;;;4.03;0.63;;;11.40;99.90;;;;;;4837449;29;20057;-69
2022/01/03 13:12:42;;;;;;;4.63;0.60;;;11.30;99.90;;;;;;4823734;29;20057;-69
2022/01/03 13:15:11;;;;;;;2.60;0.80;;;11.40;99.90;;;;;;4839287;29;21814;-69
2022/01/03 13:17:43;;;;;;;6.15;0.77;;;11.50;99.90;;;;;;4835791;29;20366;-69
2022/01/03 13:20:12;;;;;;;2.83;0.82;;;11.50;99.90;;;;;;4835842;29;20132;-69
2022/01/03 13:22:43;;;;;;;2.90;0.73;;;11.40;99.90;;;;;;4821520;29;20061;-70
2022/01/03 13:25:12;;;;;;;3.45;0.80;;;11.40;99.90;;;;;;4827434;29;20049;-78
2022/01/03 13:27:41;;;;;;;3.60;0.67;;;11.40;99.90;;;;;;4853455;29;20050;-72
2022/01/03 13:30:10;;;;;;;3.83;0.50;;;11.50;99.90;;;;;;4840180;29;20052;-70
2022/01/03 13:32:40;;;;;;;4.22;1.10;;;11.40;99.90;;;;;;4855108;29;20188;-71
2022/01/03 13:35:08;;;;;;;5.13;0.95;;;11.40;99.90;;;;;;4838862;29;20065;-74
2022/01/03 13:37:36;;;;;;;6.63;0.68;;;11.40;99.90;;;;;;4841787;29;21599;-73
2022/01/03 13:40:08;;;;;;;5.97;0.70;;;11.40;99.90;;;;;;4841191;29;20117;-72
2022/01/03 13:42:44;;;;;;;8.38;0.70;;;11.30;99.90;;;;;;4840962;29;20061;-74
2022/01/03 13:49:11;;;;;;;4.13;0.80;;;11.40;99.90;;;;;;4842399;29;20056;-70
2022/01/03 13:51:11;;;;;;;5.40;0.40;;;11.20;99.90;;;;;;4857784;29;20124;-69
2022/01/03 13:53:50;;;;;;;5.27;0.87;;;11.30;99.90;;;;;;4835648;29;21363;-68
2022/01/03 13:56:20;;;;;;;6.00;0.80;;;11.30;99.90;;;;;;4840126;29;20095;-71
2022/01/03 13:58:49;;;;;;;2.28;0.63;;;11.40;99.90;;;;;;4835179;29;20053;-69
2022/01/03 14:01:20;;;;;;;5.40;0.52;;;11.40;99.90;;;;;;4839473;29;20097;-68
2022/01/03 14:03:49;;;;;;;2.72;0.77;;;11.40;99.90;;;;;;4825711;29;20061;-69